Meteo Giornale » Osservazioni meteo Italia » Gioia Del Colle

ore: 08:55 - Osservazioni Meteo Gioia Del Colle
Lat. 40° 46' N Lon. 16° 56' E Alt. 345 metri s.l.m.

sereno Europe/Rome

17 °C

Sereno

Temp. 24 Ore

9 °C

22 °C

Nord/NOvest

11.1 Km/h

Dew point 12 °C

Umidità 72 %

Visibilità  10 Km

Il sole sorge alle ore 05:59

Il sole tramonta alle ore 19:41

Data e Ora Cielo e Fenomeni T °C DP °C Um. % Pres. hPa Vis. km Vento km/h
Oggi h: 08:55 sereno Sereno 17 12 72 1017 10 N/NO 11.1
Oggi h: 07:55 sereno Sereno 13 11 87 1017 8 N 1.8
Oggi h: 06:55 sereno Sereno 10 9 93 1017 7 N 3.7
Oggi h: 04:55 sereno Sereno 9 7 87 1017 6 N 3.7
Oggi h: 03:55 sereno Sereno 9 7 87 1017 6 N 1.8
Oggi h: 02:55 foschia Foschia 10 8 87 1017 5 N 5.5
Oggi h: 01:55 foschia Foschia 10 10 100 1017 5 N 3.7
Oggi h: 00:55 foschia Foschia 10 10 100 1018 1 N 3.7
Ieri h: 23:55 nebbia Nebbia 11 11 100 1018 0.6 N 3.7
Ieri h: 22:55 nebbia Nebbia 12 12 100 1018 0.1 N 3.7
Ieri h: 21:55 nebbia Nebbia 13 13 100 1018 0.1 S 9.3
Ieri h: 20:55 sereno Sereno 13 13 100 1017 6 S 13
Ieri h: 19:55 sereno Sereno 15 14 93 1018 8 S 14.8
Ieri h: 18:55 sereno Sereno 17 12 72 1018 10 S 13
Ieri h: 17:55 sereno Sereno 19 10 55 1018 10 S 18.5
Ieri h: 16:55 sereno Sereno 21 5 35 1018 10 S 20.3
Ieri h: 15:55 poco_nuvoloso Poco Nuvoloso 22 6 35 1018 10 S 18.5
Ieri h: 14:55 poco_nuvoloso Poco Nuvoloso 21 4 32 1018 10 S 20.3
Ieri h: 13:55 sereno Sereno 20 6 39 1018 10 S 20.3
Ieri h: 12:55 sereno Sereno 20 10 52 1019 10 S 18.5
Ieri h: 11:55 sereno Sereno 20 11 56 1019 8 S 22.2
Ieri h: 10:55 sereno Sereno 18 11 63 1019 8 S 18.5
Ieri h: 09:55 poco_nuvoloso Poco Nuvoloso 16 13 82 1019 7 S 18.5